createdAt,value
2017-12-12T00:00:07.470Z,83.20
2017-12-12T00:02:35.706Z,83.20
2017-12-12T00:05:04.422Z,79.70
2017-12-12T00:07:32.654Z,79.90
2017-12-12T00:10:02.090Z,78.10
2017-12-12T00:12:30.486Z,80.10
2017-12-12T00:14:58.723Z,79.70
2017-12-12T00:17:26.959Z,79.50
2017-12-12T00:19:55.989Z,80.00
2017-12-12T00:22:35.834Z,79.70
2017-12-12T00:25:04.427Z,78.90
2017-12-12T00:27:32.654Z,77.50
2017-12-12T00:30:00.894Z,76.50
2017-12-12T00:32:29.153Z,76.30
2017-12-12T00:34:57.386Z,76.70
2017-12-12T00:37:25.622Z,76.50
2017-12-12T00:39:53.873Z,76.40
2017-12-12T00:42:22.114Z,77.40
2017-12-12T00:44:51.117Z,78.80
2017-12-12T00:47:20.229Z,79.00
2017-12-12T00:49:48.470Z,78.90
2017-12-12T00:52:16.711Z,79.40
2017-12-12T00:54:44.965Z,80.10
2017-12-12T00:57:13.198Z,79.00
2017-12-12T00:59:41.435Z,79.50
2017-12-12T01:02:09.690Z,79.10
2017-12-12T01:04:37.927Z,78.40
2017-12-12T01:07:06.197Z,78.60
2017-12-12T01:09:34.573Z,78.60
2017-12-12T01:12:02.759Z,78.60
2017-12-12T01:14:30.990Z,79.20
2017-12-12T01:16:59.253Z,79.50
2017-12-12T01:19:27.498Z,78.60
2017-12-12T01:21:57.676Z,79.00
2017-12-12T01:24:25.933Z,78.80
2017-12-12T01:26:54.166Z,78.70
2017-12-12T01:29:23.166Z,77.50
2017-12-12T01:31:52.321Z,76.00
2017-12-12T01:34:20.558Z,76.00
2017-12-12T01:36:48.799Z,77.30
2017-12-12T01:39:17.054Z,77.60
2017-12-12T01:41:45.294Z,77.90
2017-12-12T01:44:13.529Z,77.40
2017-12-12T01:46:41.792Z,75.90
2017-12-12T01:49:10.190Z,76.40
2017-12-12T01:51:38.417Z,75.70
2017-12-12T01:54:06.998Z,77.00
2017-12-12T01:56:35.255Z,74.30
2017-12-12T01:59:03.497Z,74.50
2017-12-12T02:01:31.764Z,69.50
2017-12-12T02:03:59.993Z,69.60
2017-12-12T02:06:28.226Z,69.00
2017-12-12T02:08:56.477Z,67.30
2017-12-12T02:11:24.710Z,67.30
2017-12-12T02:13:52.943Z,64.90
2017-12-12T02:16:21.790Z,63.70
2017-12-12T02:18:50.030Z,62.40
2017-12-12T02:21:18.470Z,63.40
2017-12-12T02:23:46.746Z,63.00
2017-12-12T02:26:16.151Z,63.50
2017-12-12T02:28:44.381Z,63.20
2017-12-12T02:31:12.638Z,62.80
2017-12-12T02:33:41.646Z,61.80
2017-12-12T02:36:10.644Z,61.50
2017-12-12T02:38:39.354Z,61.50
2017-12-12T02:41:07.590Z,63.70
2017-12-12T02:43:35.830Z,61.50
2017-12-12T02:46:04.082Z,60.70
2017-12-12T02:48:32.323Z,61.20
2017-12-12T02:51:01.542Z,61.70
2017-12-12T02:53:29.806Z,61.60
2017-12-12T02:55:58.235Z,61.00
2017-12-12T02:58:26.470Z,61.10
2017-12-12T03:00:54.878Z,60.80
2017-12-12T03:03:23.106Z,59.70
2017-12-12T03:05:52.111Z,59.30
2017-12-12T03:08:21.138Z,58.10
2017-12-12T03:10:50.353Z,58.10
2017-12-12T03:13:18.731Z,59.10
2017-12-12T03:15:46.990Z,59.30
2017-12-12T03:18:15.227Z,59.10
2017-12-12T03:20:44.232Z,59.50
2017-12-12T03:23:13.307Z,59.50
2017-12-12T03:25:41.549Z,59.40
2017-12-12T03:28:09.788Z,59.60
2017-12-12T03:30:38.039Z,58.70
2017-12-12T03:33:07.038Z,59.00
2017-12-12T03:35:37.217Z,59.60
2017-12-12T03:38:05.475Z,59.60
2017-12-12T03:40:33.717Z,59.80
2017-12-12T03:43:02.970Z,59.30
2017-12-12T03:45:31.311Z,59.30
2017-12-12T03:47:59.541Z,59.80
2017-12-12T03:50:27.801Z,59.40
2017-12-12T03:52:56.238Z,59.40
2017-12-12T03:55:25.238Z,60.40
2017-12-12T03:57:53.474Z,60.30
2017-12-12T04:00:21.830Z,58.80
2017-12-12T04:02:50.042Z,58.20
2017-12-12T04:05:19.197Z,59.20
2017-12-12T04:07:47.767Z,59.30
2017-12-12T04:10:16.061Z,59.30
2017-12-12T04:12:44.444Z,59.90
2017-12-12T04:15:12.813Z,59.60
2017-12-12T04:17:41.045Z,60.00
2017-12-12T04:20:09.277Z,60.60
2017-12-12T04:22:37.550Z,62.00
2017-12-12T04:25:05.782Z,62.30
2017-12-12T04:27:36.867Z,62.40
2017-12-12T04:30:05.181Z,62.40
2017-12-12T04:32:33.416Z,63.40
2017-12-12T04:35:01.658Z,62.80
2017-12-12T04:37:29.909Z,64.00
2017-12-12T04:39:59.070Z,64.10
2017-12-12T04:42:27.310Z,64.10
2017-12-12T04:44:55.565Z,62.70
2017-12-12T04:47:24.569Z,63.00
2017-12-12T04:49:53.574Z,62.30
2017-12-12T04:52:21.887Z,62.20
2017-12-12T04:54:50.313Z,62.50
2017-12-12T04:57:19.309Z,62.40
2017-12-12T04:59:48.329Z,61.40
2017-12-12T05:02:16.565Z,61.40
2017-12-12T05:04:44.803Z,62.00
2017-12-12T05:07:13.058Z,62.30
2017-12-12T05:09:41.466Z,62.00
2017-12-12T05:12:09.698Z,62.10
2017-12-12T05:14:38.305Z,61.50
2017-12-12T05:17:06.538Z,61.70
2017-12-12T05:19:34.778Z,62.50
2017-12-12T05:22:03.048Z,62.80
2017-12-12T05:24:31.428Z,62.90
2017-12-12T05:26:59.657Z,62.50
2017-12-12T05:29:28.702Z,63.00
2017-12-12T05:31:56.917Z,62.90
2017-12-12T05:34:25.918Z,63.30
2017-12-12T05:36:56.178Z,63.40
2017-12-12T05:39:24.401Z,63.40
2017-12-12T05:41:52.854Z,63.30
2017-12-12T05:44:21.110Z,63.40
2017-12-12T05:46:49.345Z,63.20
2017-12-12T05:49:18.349Z,63.40
2017-12-12T05:51:47.374Z,64.50
2017-12-12T05:54:15.650Z,64.50
2017-12-12T05:56:44.110Z,64.30
2017-12-12T05:59:12.496Z,63.70
2017-12-12T06:01:40.738Z,63.60
2017-12-12T06:04:08.969Z,63.80
2017-12-12T06:06:37.283Z,64.20
2017-12-12T06:09:05.533Z,64.50
2017-12-12T06:11:33.757Z,64.70
2017-12-12T06:14:02.795Z,64.90
2017-12-12T06:16:31.026Z,64.80
2017-12-12T06:18:59.359Z,64.90
2017-12-12T06:21:27.645Z,64.90
2017-12-12T06:23:55.914Z,65.40
2017-12-12T06:26:24.145Z,65.00
2017-12-12T06:28:52.433Z,64.10
2017-12-12T06:31:20.674Z,64.40
2017-12-12T06:33:48.908Z,63.90
2017-12-12T06:36:17.399Z,64.30
2017-12-12T06:38:45.616Z,64.40
2017-12-12T06:41:14.614Z,65.60
2017-12-12T06:43:43.705Z,65.00
2017-12-12T06:46:12.697Z,65.00
2017-12-12T06:48:41.697Z,64.70
2017-12-12T06:51:10.725Z,65.40
2017-12-12T06:53:38.957Z,65.30
2017-12-12T06:56:07.958Z,66.20
2017-12-12T06:58:37.158Z,66.00
2017-12-12T07:01:05.389Z,65.90
2017-12-12T07:03:33.630Z,66.00
2017-12-12T07:06:02.195Z,67.10
2017-12-12T07:08:30.382Z,66.80
2017-12-12T07:10:58.822Z,67.40
2017-12-12T07:13:27.080Z,67.70
2017-12-12T07:15:55.314Z,67.20
2017-12-12T07:18:23.542Z,66.90
2017-12-12T07:20:52.097Z,66.60
2017-12-12T07:23:20.330Z,65.80
2017-12-12T07:25:48.771Z,65.70
2017-12-12T07:28:17.078Z,65.60
2017-12-12T07:52:17.219Z,64.40
2017-12-12T07:54:45.434Z,64.40
2017-12-12T07:57:14.591Z,64.40
2017-12-12T07:59:43.129Z,64.30
2017-12-12T08:02:11.363Z,64.00
2017-12-12T08:04:39.626Z,64.30
2017-12-12T08:07:08.080Z,64.70
2017-12-12T08:09:36.299Z,64.80
2017-12-12T08:12:06.506Z,64.50
2017-12-12T08:14:34.874Z,64.50
2017-12-12T08:17:03.110Z,64.10
2017-12-12T08:19:31.350Z,64.30
2017-12-12T08:21:59.876Z,64.40
2017-12-12T08:24:28.857Z,64.00
2017-12-12T08:26:58.965Z,62.40
2017-12-12T08:29:27.195Z,62.30
2017-12-12T08:31:55.430Z,61.60
2017-12-12T08:34:24.434Z,61.00
2017-12-12T08:36:52.835Z,61.00
2017-12-12T08:39:21.071Z,61.40
2017-12-12T08:41:49.310Z,61.00
2017-12-12T08:44:17.566Z,61.10
2017-12-12T08:46:45.803Z,61.30
2017-12-12T08:49:14.810Z,60.10
2017-12-12T08:51:43.074Z,60.00
2017-12-12T08:54:12.082Z,61.00
2017-12-12T08:56:41.087Z,60.10
2017-12-12T08:59:09.406Z,60.00
2017-12-12T09:01:38.123Z,60.90
2017-12-12T09:04:07.123Z,58.90
2017-12-12T09:06:36.403Z,58.60
2017-12-12T09:09:04.645Z,58.50
2017-12-12T09:11:33.035Z,58.40
2017-12-12T09:14:01.275Z,58.00
2017-12-12T09:16:29.519Z,57.70
2017-12-12T09:18:57.768Z,57.80
2017-12-12T09:21:26.187Z,57.80
2017-12-12T09:23:54.427Z,57.60
2017-12-12T09:26:22.803Z,57.20
2017-12-12T09:28:51.070Z,56.90
2017-12-12T09:31:19.306Z,57.60
2017-12-12T09:33:47.550Z,56.90
2017-12-12T09:36:16.029Z,56.70
2017-12-12T09:38:44.284Z,55.80
2017-12-12T09:41:12.502Z,57.00
2017-12-12T09:43:41.849Z,54.80
2017-12-12T09:46:10.082Z,54.80
2017-12-12T09:48:38.319Z,54.90
2017-12-12T09:51:06.592Z,55.10
2017-12-12T09:53:34.822Z,54.90
2017-12-12T09:56:04.278Z,55.40
2017-12-12T09:58:32.543Z,54.70
2017-12-12T10:01:01.543Z,54.20
2017-12-12T10:03:30.067Z,54.10
2017-12-12T10:05:59.760Z,54.70
2017-12-12T10:08:28.010Z,54.60
2017-12-12T10:10:56.395Z,54.50
2017-12-12T10:13:24.659Z,54.30
2017-12-12T10:15:54.070Z,54.50
2017-12-12T10:18:22.346Z,54.70
2017-12-12T10:20:51.783Z,54.20
2017-12-12T10:23:20.030Z,53.90
2017-12-12T10:25:48.262Z,54.30
2017-12-12T10:28:17.345Z,54.30
2017-12-12T10:30:46.492Z,54.10
2017-12-12T10:33:14.938Z,54.10
2017-12-12T10:35:43.281Z,54.10
2017-12-12T10:38:15.627Z,53.60
2017-12-12T10:40:44.210Z,53.50
2017-12-12T10:43:12.431Z,53.70
2017-12-12T10:45:42.610Z,53.30
2017-12-12T10:48:11.075Z,53.30
2017-12-12T10:50:40.303Z,53.60
2017-12-12T10:53:09.792Z,54.10
2017-12-12T10:55:38.034Z,54.40
2017-12-12T10:58:06.275Z,54.90
2017-12-12T11:00:34.514Z,54.70
2017-12-12T11:03:04.982Z,53.10
2017-12-12T11:05:33.944Z,53.50
2017-12-12T11:08:02.331Z,54.10
2017-12-12T11:10:30.906Z,53.50
2017-12-12T11:12:59.282Z,54.00
2017-12-12T11:15:28.735Z,54.30
2017-12-12T11:17:58.955Z,53.90
2017-12-12T11:20:27.964Z,53.90
2017-12-12T11:22:57.077Z,53.70
2017-12-12T11:25:25.339Z,53.60
2017-12-12T11:27:53.662Z,54.30
2017-12-12T11:30:22.044Z,52.40
2017-12-12T11:32:50.509Z,53.00
2017-12-12T11:35:19.920Z,52.70
2017-12-12T11:37:48.134Z,52.20
2017-12-12T11:40:17.204Z,52.00
2017-12-12T11:42:45.433Z,51.90
2017-12-12T11:45:13.846Z,52.20
2017-12-12T11:47:42.255Z,51.20
2017-12-12T11:50:10.809Z,51.90
2017-12-12T11:52:39.186Z,52.50
2017-12-12T11:55:07.754Z,52.20
2017-12-12T11:57:35.990Z,51.90
2017-12-12T12:00:04.428Z,51.80
2017-12-12T12:02:32.838Z,52.40
2017-12-12T12:05:01.195Z,52.60
2017-12-12T12:07:29.770Z,52.80
2017-12-12T12:09:58.015Z,52.10
2017-12-12T12:12:26.330Z,51.80
2017-12-12T12:14:54.566Z,52.40
2017-12-12T12:17:23.014Z,52.00
2017-12-12T12:19:51.494Z,51.00
2017-12-12T12:22:23.870Z,51.10
2017-12-12T12:24:52.875Z,52.10
2017-12-12T12:27:21.901Z,51.00
2017-12-12T12:29:50.239Z,50.90
2017-12-12T12:32:19.510Z,51.80
2017-12-12T12:34:47.887Z,51.70
2017-12-12T12:37:16.439Z,51.70
2017-12-12T12:39:44.683Z,51.40
2017-12-12T12:42:13.694Z,51.60
2017-12-12T12:44:48.006Z,51.50
2017-12-12T12:47:16.247Z,51.40
2017-12-12T12:49:44.490Z,51.50
2017-12-12T12:52:12.750Z,51.50
2017-12-12T12:54:41.370Z,51.70
2017-12-12T12:57:09.754Z,51.60
2017-12-12T12:59:38.220Z,52.00
2017-12-12T13:02:06.713Z,51.50
2017-12-12T13:04:34.939Z,51.40
2017-12-12T13:07:09.730Z,51.60
2017-12-12T13:09:38.301Z,51.60
2017-12-12T13:12:06.518Z,51.70
2017-12-12T13:14:35.826Z,52.60
2017-12-12T13:17:04.151Z,52.50
2017-12-12T13:19:32.530Z,52.80
2017-12-12T13:22:00.978Z,52.80
2017-12-12T13:24:29.300Z,53.20
2017-12-12T13:26:57.856Z,52.90
2017-12-12T13:29:27.323Z,52.80
2017-12-12T13:31:56.334Z,53.10
2017-12-12T13:34:24.658Z,53.00
2017-12-12T13:36:53.071Z,53.40
2017-12-12T13:39:23.263Z,53.70
2017-12-12T13:41:51.635Z,53.60
2017-12-12T13:44:20.087Z,53.60
2017-12-12T13:46:49.515Z,53.60
2017-12-12T13:49:17.893Z,54.10
2017-12-12T13:51:47.326Z,53.70
2017-12-12T13:54:15.568Z,53.70
2017-12-12T13:56:43.801Z,52.80
2017-12-12T13:59:13.114Z,53.40
2017-12-12T14:01:43.586Z,53.30
2017-12-12T14:04:11.972Z,53.30
2017-12-12T14:06:41.434Z,53.80
2017-12-12T14:09:09.680Z,54.00
2017-12-12T14:11:38.946Z,54.80
2017-12-12T14:14:07.363Z,54.70
2017-12-12T14:16:37.546Z,55.00
2017-12-12T14:19:05.919Z,55.00
2017-12-12T14:21:35.251Z,54.90
2017-12-12T14:24:03.493Z,54.90
2017-12-12T14:26:33.866Z,55.00
2017-12-12T14:29:03.210Z,56.00
2017-12-12T14:31:31.706Z,56.00
2017-12-12T14:34:00.200Z,56.40
2017-12-12T14:36:28.589Z,56.10
2017-12-12T14:38:57.882Z,56.00
2017-12-12T14:41:26.247Z,55.70
2017-12-12T14:43:54.538Z,55.50
2017-12-12T14:46:25.052Z,55.40
2017-12-12T14:48:53.609Z,55.30
2017-12-12T14:51:22.078Z,55.60
2017-12-12T14:53:51.570Z,55.40
2017-12-12T14:56:20.589Z,55.60
2017-12-12T14:58:49.927Z,55.60
2017-12-12T15:01:18.219Z,55.90
2017-12-12T15:03:46.780Z,56.30
2017-12-12T15:06:16.219Z,56.70
2017-12-12T15:08:46.482Z,57.80
2017-12-12T15:11:16.015Z,57.40
2017-12-12T15:13:44.508Z,57.80
2017-12-12T15:16:15.125Z,58.10
2017-12-12T15:18:44.530Z,58.30
2017-12-12T15:21:12.786Z,58.30
2017-12-12T15:23:41.184Z,59.00
2017-12-12T15:26:09.702Z,59.30
2017-12-12T15:28:38.754Z,59.70
2017-12-12T15:31:07.246Z,59.60
2017-12-12T15:33:35.459Z,59.10
2017-12-12T15:36:04.816Z,60.70
2017-12-12T15:38:33.051Z,60.60
2017-12-12T15:41:01.299Z,61.30
2017-12-12T15:43:29.574Z,61.50
2017-12-12T15:45:57.796Z,62.50
2017-12-12T15:48:26.035Z,61.80
2017-12-12T15:50:54.298Z,63.20
2017-12-12T15:53:22.758Z,64.20
2017-12-12T15:55:51.147Z,62.20
2017-12-12T15:58:19.490Z,62.10
2017-12-12T16:00:48.506Z,62.20
2017-12-12T16:03:17.402Z,62.50
2017-12-12T16:05:45.647Z,63.00
2017-12-12T16:08:13.887Z,64.10
2017-12-12T16:10:42.342Z,63.90
2017-12-12T16:13:11.694Z,65.40
2017-12-12T16:15:44.636Z,65.90
2017-12-12T16:18:13.211Z,65.80
2017-12-12T16:20:41.430Z,66.40
2017-12-12T16:23:10.690Z,67.40
2017-12-12T16:25:40.195Z,67.40
2017-12-12T16:28:08.446Z,66.20
2017-12-12T16:30:36.767Z,65.50
2017-12-12T16:33:06.248Z,66.00
2017-12-12T16:35:34.544Z,65.50
2017-12-12T16:38:02.925Z,66.10
2017-12-12T16:40:32.190Z,65.20
2017-12-12T16:43:00.482Z,64.50
2017-12-12T16:45:29.065Z,64.20
2017-12-12T16:47:57.444Z,64.00
2017-12-12T16:50:29.938Z,64.40
2017-12-12T16:52:58.346Z,64.30
2017-12-12T16:55:27.399Z,65.20
2017-12-12T16:57:55.693Z,64.30
2017-12-12T17:00:24.260Z,64.60
2017-12-12T17:02:53.659Z,65.00
2017-12-12T17:05:22.241Z,64.40
2017-12-12T17:07:50.517Z,63.70
2017-12-12T17:10:18.795Z,62.70
2017-12-12T17:12:47.483Z,62.60
2017-12-12T17:15:15.949Z,62.60
2017-12-12T17:17:44.170Z,62.50
2017-12-12T17:20:12.522Z,62.80
2017-12-12T17:22:41.088Z,62.30
2017-12-12T17:25:09.893Z,63.60
2017-12-12T17:27:38.114Z,63.90
2017-12-12T17:30:07.264Z,65.20
2017-12-12T17:32:35.483Z,65.10
2017-12-12T17:35:05.671Z,64.10
2017-12-12T17:37:34.244Z,64.00
2017-12-12T17:40:02.479Z,64.60
2017-12-12T17:42:32.987Z,65.30
2017-12-12T17:45:03.277Z,65.50
2017-12-12T17:47:31.566Z,65.60
2017-12-12T17:49:59.802Z,66.50
2017-12-12T17:52:28.066Z,66.00
2017-12-12T17:54:56.310Z,64.90
2017-12-12T17:57:24.771Z,64.80
2017-12-12T17:59:53.199Z,64.30
2017-12-12T18:02:21.537Z,63.60
2017-12-12T18:04:49.909Z,63.10
2017-12-12T18:07:18.386Z,63.30
2017-12-12T18:09:46.777Z,63.10
2017-12-12T18:12:17.215Z,64.10
2017-12-12T18:14:45.664Z,65.40
2017-12-12T18:17:16.106Z,65.70
2017-12-12T18:19:44.677Z,65.90
2017-12-12T18:22:14.273Z,66.70
2017-12-12T18:24:45.633Z,67.60
2017-12-12T18:27:16.162Z,69.40
2017-12-12T18:29:44.459Z,67.10
2017-12-12T18:32:14.260Z,71.40
2017-12-12T18:34:42.535Z,68.00
2017-12-12T18:37:11.038Z,67.70
2017-12-12T18:39:39.354Z,67.70
2017-12-12T18:42:08.680Z,66.20
2017-12-12T18:44:36.906Z,66.10
2017-12-12T18:47:07.099Z,64.80
2017-12-12T18:49:41.076Z,64.70
2017-12-12T18:52:13.980Z,64.30
2017-12-12T18:54:44.067Z,64.40
2017-12-12T18:57:12.333Z,63.60
2017-12-12T18:59:41.326Z,64.30
2017-12-12T19:05:09.448Z,64.10
2017-12-12T19:07:37.743Z,63.90
2017-12-12T19:10:06.119Z,63.40
2017-12-12T19:12:34.397Z,63.90
2017-12-12T19:15:05.031Z,63.00
2017-12-12T19:17:33.274Z,64.30
2017-12-12T19:20:01.546Z,66.40
2017-12-12T19:22:29.782Z,66.70
2017-12-12T19:24:58.018Z,66.20
2017-12-12T19:27:26.706Z,67.10
2017-12-12T19:29:54.942Z,67.40
2017-12-12T19:32:23.179Z,67.60
2017-12-12T19:34:51.438Z,67.20
2017-12-12T19:37:19.683Z,67.90
2017-12-12T19:39:47.918Z,68.90
2017-12-12T19:42:16.184Z,68.80
2017-12-12T19:44:44.419Z,67.60
2017-12-12T19:47:12.654Z,66.70
2017-12-12T19:49:41.502Z,65.50
2017-12-12T19:52:09.742Z,64.90
2017-12-12T19:54:37.978Z,65.70
2017-12-12T19:57:06.248Z,65.40
2017-12-12T19:59:34.475Z,65.90
2017-12-12T20:02:02.710Z,66.10
2017-12-12T20:04:31.110Z,65.60
2017-12-12T20:06:59.357Z,65.30
2017-12-12T20:09:28.350Z,64.80
2017-12-12T20:11:56.966Z,64.60
2017-12-12T20:14:25.971Z,66.10
2017-12-12T20:16:55.163Z,66.40
2017-12-12T20:19:23.551Z,66.40
2017-12-12T20:21:52.704Z,66.90
2017-12-12T20:24:21.080Z,66.90
2017-12-12T20:26:49.325Z,66.40
2017-12-12T20:29:17.562Z,66.10
2017-12-12T20:31:46.014Z,66.60
2017-12-12T20:34:14.786Z,67.10
2017-12-12T20:36:43.022Z,65.90
2017-12-12T20:39:11.262Z,67.00
2017-12-12T20:41:39.529Z,68.00
2017-12-12T20:44:07.774Z,67.40
2017-12-12T20:46:36.025Z,66.70
2017-12-12T20:49:04.386Z,66.80
2017-12-12T20:51:32.626Z,66.80
2017-12-12T20:54:00.875Z,69.50
2017-12-12T20:56:29.539Z,69.20
2017-12-12T20:58:58.696Z,68.40
2017-12-12T21:01:26.918Z,68.30
2017-12-12T21:03:57.118Z,69.00
2017-12-12T21:06:25.354Z,69.00
2017-12-12T21:08:53.594Z,69.00
2017-12-12T21:11:22.631Z,69.90
2017-12-12T21:13:50.862Z,69.90
2017-12-12T21:16:19.113Z,71.00
2017-12-12T21:18:47.880Z,70.50
2017-12-12T21:21:16.098Z,70.10
2017-12-12T21:23:45.103Z,70.00
2017-12-12T21:26:13.365Z,69.90
2017-12-12T21:28:41.602Z,70.00
2017-12-12T21:31:09.843Z,70.90
2017-12-12T21:33:38.106Z,70.70
2017-12-12T21:36:06.346Z,71.00
2017-12-12T21:38:34.590Z,72.00
2017-12-12T21:41:03.130Z,74.80
2017-12-12T21:43:32.398Z,74.70
2017-12-12T21:46:00.633Z,74.60
2017-12-12T21:48:28.894Z,71.90
2017-12-12T21:50:57.899Z,70.60
2017-12-12T21:53:26.139Z,70.60
2017-12-12T21:55:54.617Z,69.50
2017-12-12T21:58:22.861Z,72.50
2017-12-12T22:00:51.089Z,72.90
2017-12-12T22:03:20.174Z,72.60
2017-12-12T22:05:48.415Z,72.50
2017-12-12T22:08:16.655Z,72.00
2017-12-12T22:10:44.915Z,70.40
2017-12-12T22:13:13.924Z,72.20
2017-12-12T22:15:42.158Z,72.40
2017-12-12T22:18:10.427Z,73.20
2017-12-12T22:20:39.062Z,72.70
2017-12-12T22:23:07.298Z,72.80
2017-12-12T22:25:35.890Z,72.80
2017-12-12T22:28:04.522Z,73.20
2017-12-12T22:30:32.746Z,73.10
2017-12-12T22:33:01.006Z,73.20
2017-12-12T22:35:29.242Z,74.10
2017-12-12T22:37:57.654Z,76.80
2017-12-12T22:40:25.915Z,76.30
2017-12-12T22:42:54.149Z,74.50
2017-12-12T22:45:23.158Z,75.10
2017-12-12T22:47:51.578Z,75.00
2017-12-12T22:50:19.814Z,74.30
2017-12-12T22:52:48.235Z,78.60
2017-12-12T22:55:16.496Z,76.40
2017-12-12T22:57:44.730Z,78.50
2017-12-12T23:00:20.471Z,76.60
2017-12-12T23:02:48.817Z,76.50
2017-12-12T23:05:17.049Z,74.60
2017-12-12T23:07:45.498Z,79.50
2017-12-12T23:10:13.955Z,77.40
2017-12-12T23:12:42.194Z,79.20
2017-12-12T23:15:10.454Z,77.30
2017-12-12T23:17:39.474Z,76.50
2017-12-12T23:20:07.710Z,76.40
2017-12-12T23:22:36.275Z,74.90
2017-12-12T23:25:04.506Z,73.70
2017-12-12T23:27:32.746Z,74.20
2017-12-12T23:30:01.254Z,73.80
2017-12-12T23:32:29.506Z,79.60
2017-12-12T23:34:57.763Z,75.00
2017-12-12T23:37:26.024Z,74.50
2017-12-12T23:39:55.027Z,74.70
2017-12-12T23:42:23.262Z,74.60
2017-12-12T23:44:51.523Z,76.30
2017-12-12T23:47:19.759Z,75.30
2017-12-12T23:49:48.026Z,76.60
2017-12-12T23:52:16.366Z,78.30
2017-12-12T23:54:44.619Z,75.50
2017-12-12T23:57:13.623Z,75.50
2017-12-12T23:59:41.882Z,75.60
